sensor_id;sensor_type;location;lat;lon;timestamp;temperature;humidity
62904;DHT22;49000;50.698;13.322;2023-05-10T00:00:50;9.50;1.00
62904;DHT22;49000;50.698;13.322;2023-05-10T00:03:16;9.40;1.00
62904;DHT22;49000;50.698;13.322;2023-05-10T00:05:41;9.40;1.00
62904;DHT22;49000;50.698;13.322;2023-05-10T00:08:07;9.40;1.00
62904;DHT22;49000;50.698;13.322;2023-05-10T00:10:32;9.40;1.00
62904;DHT22;49000;50.698;13.322;2023-05-10T00:12:58;9.30;1.00
62904;DHT22;49000;50.698;13.322;2023-05-10T00:15:23;9.30;1.00
62904;DHT22;49000;50.698;13.322;2023-05-10T00:17:49;9.30;1.00
62904;DHT22;49000;50.698;13.322;2023-05-10T00:20:14;9.30;1.00
62904;DHT22;49000;50.698;13.322;2023-05-10T00:22:40;9.20;1.00
62904;DHT22;49000;50.698;13.322;2023-05-10T00:25:06;9.30;1.00
62904;DHT22;49000;50.698;13.322;2023-05-10T00:27:32;9.30;1.00
62904;DHT22;49000;50.698;13.322;2023-05-10T00:29:57;9.20;1.00
62904;DHT22;49000;50.698;13.322;2023-05-10T00:32:23;9.20;1.00
62904;DHT22;49000;50.698;13.322;2023-05-10T00:34:48;9.20;1.00
62904;DHT22;49000;50.698;13.322;2023-05-10T00:37:14;9.10;1.00
62904;DHT22;49000;50.698;13.322;2023-05-10T00:39:39;9.10;1.00
62904;DHT22;49000;50.698;13.322;2023-05-10T00:42:05;9.00;1.00
62904;DHT22;49000;50.698;13.322;2023-05-10T00:44:30;9.00;1.00
62904;DHT22;49000;50.698;13.322;2023-05-10T00:46:56;9.10;1.00
62904;DHT22;49000;50.698;13.322;2023-05-10T00:49:22;9.10;1.00
62904;DHT22;49000;50.698;13.322;2023-05-10T00:51:48;9.00;1.00
62904;DHT22;49000;50.698;13.322;2023-05-10T00:54:14;9.00;1.00
62904;DHT22;49000;50.698;13.322;2023-05-10T00:56:40;8.90;1.00
62904;DHT22;49000;50.698;13.322;2023-05-10T00:59:09;8.90;1.00
62904;DHT22;49000;50.698;13.322;2023-05-10T01:01:35;8.90;1.00
62904;DHT22;49000;50.698;13.322;2023-05-10T01:04:01;8.90;1.00
62904;DHT22;49000;50.698;13.322;2023-05-10T01:06:27;8.90;1.00
62904;DHT22;49000;50.698;13.322;2023-05-10T01:08:53;8.90;1.00
62904;DHT22;49000;50.698;13.322;2023-05-10T01:11:18;8.90;1.00
62904;DHT22;49000;50.698;13.322;2023-05-10T01:13:47;8.80;1.00
62904;DHT22;49000;50.698;13.322;2023-05-10T01:16:15;8.80;1.00
62904;DHT22;49000;50.698;13.322;2023-05-10T01:18:41;8.80;1.00
62904;DHT22;49000;50.698;13.322;2023-05-10T01:21:20;8.80;1.00
62904;DHT22;49000;50.698;13.322;2023-05-10T01:24:12;8.70;1.00
62904;DHT22;49000;50.698;13.322;2023-05-10T01:27:11;8.80;1.00
62904;DHT22;49000;50.698;13.322;2023-05-10T01:30:15;8.70;1.00
62904;DHT22;49000;50.698;13.322;2023-05-10T01:35:22;8.70;1.00
62904;DHT22;49000;50.698;13.322;2023-05-10T01:38:12;8.70;1.00
62904;DHT22;49000;50.698;13.322;2023-05-10T01:41:12;8.70;1.00
62904;DHT22;49000;50.698;13.322;2023-05-10T01:44:16;8.60;1.00
62904;DHT22;49000;50.698;13.322;2023-05-10T01:46:45;8.60;1.00
62904;DHT22;49000;50.698;13.322;2023-05-10T01:49:23;8.50;1.00
62904;DHT22;49000;50.698;13.322;2023-05-10T01:51:52;8.50;1.00
62904;DHT22;49000;50.698;13.322;2023-05-10T01:54:21;8.50;1.00
62904;DHT22;49000;50.698;13.322;2023-05-10T01:57:03;8.40;1.00
62904;DHT22;49000;50.698;13.322;2023-05-10T01:59:33;8.40;1.00
62904;DHT22;49000;50.698;13.322;2023-05-10T02:02:02;8.40;1.00
62904;DHT22;49000;50.698;13.322;2023-05-10T02:04:30;8.30;1.00
62904;DHT22;49000;50.698;13.322;2023-05-10T02:06:56;8.40;1.00
62904;DHT22;49000;50.698;13.322;2023-05-10T02:09:23;8.40;1.00
62904;DHT22;49000;50.698;13.322;2023-05-10T02:11:50;8.30;1.00
62904;DHT22;49000;50.698;13.322;2023-05-10T02:14:18;8.30;1.00
62904;DHT22;49000;50.698;13.322;2023-05-10T02:16:45;8.40;1.00
62904;DHT22;49000;50.698;13.322;2023-05-10T02:19:12;8.40;1.00
62904;DHT22;49000;50.698;13.322;2023-05-10T02:21:39;8.40;1.00
62904;DHT22;49000;50.698;13.322;2023-05-10T02:24:06;8.40;1.00
62904;DHT22;49000;50.698;13.322;2023-05-10T02:26:34;8.30;1.00
62904;DHT22;49000;50.698;13.322;2023-05-10T02:29:02;8.30;1.00
62904;DHT22;49000;50.698;13.322;2023-05-10T02:31:30;8.30;1.00
62904;DHT22;49000;50.698;13.322;2023-05-10T02:33:56;8.20;1.00
62904;DHT22;49000;50.698;13.322;2023-05-10T02:36:22;8.10;1.00
62904;DHT22;49000;50.698;13.322;2023-05-10T02:38:48;8.00;1.00
62904;DHT22;49000;50.698;13.322;2023-05-10T02:41:15;7.90;1.00
62904;DHT22;49000;50.698;13.322;2023-05-10T02:43:42;7.90;1.00
62904;DHT22;49000;50.698;13.322;2023-05-10T02:46:08;7.90;1.00
62904;DHT22;49000;50.698;13.322;2023-05-10T02:48:33;7.90;1.00
62904;DHT22;49000;50.698;13.322;2023-05-10T02:51:04;7.90;1.00
62904;DHT22;49000;50.698;13.322;2023-05-10T02:53:31;7.80;1.00
62904;DHT22;49000;50.698;13.322;2023-05-10T02:56:01;7.90;1.00
62904;DHT22;49000;50.698;13.322;2023-05-10T02:58:29;7.90;1.00
62904;DHT22;49000;50.698;13.322;2023-05-10T03:00:54;7.90;1.00
62904;DHT22;49000;50.698;13.322;2023-05-10T03:03:20;7.90;1.00
62904;DHT22;49000;50.698;13.322;2023-05-10T03:05:46;7.90;1.00
62904;DHT22;49000;50.698;13.322;2023-05-10T03:08:12;7.80;1.00
62904;DHT22;49000;50.698;13.322;2023-05-10T03:10:44;7.80;1.00
62904;DHT22;49000;50.698;13.322;2023-05-10T03:13:39;7.70;1.00
62904;DHT22;49000;50.698;13.322;2023-05-10T03:16:13;7.70;1.00
62904;DHT22;49000;50.698;13.322;2023-05-10T03:19:12;7.60;1.00
62904;DHT22;49000;50.698;13.322;2023-05-10T03:21:45;7.60;1.00
62904;DHT22;49000;50.698;13.322;2023-05-10T03:24:13;7.50;1.00
62904;DHT22;49000;50.698;13.322;2023-05-10T03:26:43;7.50;1.00
62904;DHT22;49000;50.698;13.322;2023-05-10T03:29:10;7.60;1.00
62904;DHT22;49000;50.698;13.322;2023-05-10T03:31:37;7.50;1.00
62904;DHT22;49000;50.698;13.322;2023-05-10T03:34:03;7.60;1.00
62904;DHT22;49000;50.698;13.322;2023-05-10T03:36:28;7.60;1.00
62904;DHT22;49000;50.698;13.322;2023-05-10T03:38:54;7.60;1.00
62904;DHT22;49000;50.698;13.322;2023-05-10T03:41:19;7.60;1.00
62904;DHT22;49000;50.698;13.322;2023-05-10T03:43:45;7.60;1.00
62904;DHT22;49000;50.698;13.322;2023-05-10T03:46:11;7.60;1.00
62904;DHT22;49000;50.698;13.322;2023-05-10T03:48:37;7.70;1.00
62904;DHT22;49000;50.698;13.322;2023-05-10T03:51:03;7.70;1.00
62904;DHT22;49000;50.698;13.322;2023-05-10T03:53:28;7.70;1.00
62904;DHT22;49000;50.698;13.322;2023-05-10T03:55:54;7.70;1.00
62904;DHT22;49000;50.698;13.322;2023-05-10T03:58:19;7.40;1.00
62904;DHT22;49000;50.698;13.322;2023-05-10T04:00:45;7.70;1.00
62904;DHT22;49000;50.698;13.322;2023-05-10T04:03:11;7.60;1.00
62904;DHT22;49000;50.698;13.322;2023-05-10T04:05:37;7.60;1.00
62904;DHT22;49000;50.698;13.322;2023-05-10T04:08:04;7.60;1.00
62904;DHT22;49000;50.698;13.322;2023-05-10T04:10:29;7.70;1.00
62904;DHT22;49000;50.698;13.322;2023-05-10T04:12:55;7.70;1.00
62904;DHT22;49000;50.698;13.322;2023-05-10T04:15:20;7.70;1.00
62904;DHT22;49000;50.698;13.322;2023-05-10T04:17:46;7.70;1.00
62904;DHT22;49000;50.698;13.322;2023-05-10T04:20:12;7.70;1.00
62904;DHT22;49000;50.698;13.322;2023-05-10T04:22:38;7.70;1.00
62904;DHT22;49000;50.698;13.322;2023-05-10T04:25:04;7.80;1.00
62904;DHT22;49000;50.698;13.322;2023-05-10T04:27:30;7.80;1.00
62904;DHT22;49000;50.698;13.322;2023-05-10T04:29:56;7.80;1.00
62904;DHT22;49000;50.698;13.322;2023-05-10T04:32:21;7.80;1.00
62904;DHT22;49000;50.698;13.322;2023-05-10T04:34:47;7.90;1.00
62904;DHT22;49000;50.698;13.322;2023-05-10T04:37:12;7.90;1.00
62904;DHT22;49000;50.698;13.322;2023-05-10T04:39:38;8.00;1.00
62904;DHT22;49000;50.698;13.322;2023-05-10T04:42:03;8.00;1.00
62904;DHT22;49000;50.698;13.322;2023-05-10T04:44:33;8.10;1.00
62904;DHT22;49000;50.698;13.322;2023-05-10T04:46:59;8.10;1.00
62904;DHT22;49000;50.698;13.322;2023-05-10T04:49:24;8.20;1.00
62904;DHT22;49000;50.698;13.322;2023-05-10T04:51:50;8.20;1.00
62904;DHT22;49000;50.698;13.322;2023-05-10T04:54:15;8.30;1.00
62904;DHT22;49000;50.698;13.322;2023-05-10T04:56:41;8.30;1.00
62904;DHT22;49000;50.698;13.322;2023-05-10T04:59:06;8.30;1.00
62904;DHT22;49000;50.698;13.322;2023-05-10T05:01:32;8.30;1.00
62904;DHT22;49000;50.698;13.322;2023-05-10T05:03:58;8.40;1.00
62904;DHT22;49000;50.698;13.322;2023-05-10T05:06:24;8.40;1.00
62904;DHT22;49000;50.698;13.322;2023-05-10T05:08:50;8.50;1.00
62904;DHT22;49000;50.698;13.322;2023-05-10T05:11:19;8.50;1.00
62904;DHT22;49000;50.698;13.322;2023-05-10T05:13:44;8.60;1.00
62904;DHT22;49000;50.698;13.322;2023-05-10T05:16:10;8.60;1.00
62904;DHT22;49000;50.698;13.322;2023-05-10T05:18:36;8.70;1.00
62904;DHT22;49000;50.698;13.322;2023-05-10T05:21:02;8.70;1.00
62904;DHT22;49000;50.698;13.322;2023-05-10T05:23:27;8.80;1.00
62904;DHT22;49000;50.698;13.322;2023-05-10T05:25:53;9.00;1.00
62904;DHT22;49000;50.698;13.322;2023-05-10T05:28:22;9.10;1.00
62904;DHT22;49000;50.698;13.322;2023-05-10T05:30:47;9.20;1.00
62904;DHT22;49000;50.698;13.322;2023-05-10T05:33:13;9.40;1.00
62904;DHT22;49000;50.698;13.322;2023-05-10T05:35:39;9.50;1.00
62904;DHT22;49000;50.698;13.322;2023-05-10T05:38:04;9.60;1.00
62904;DHT22;49000;50.698;13.322;2023-05-10T05:40:30;9.80;1.00
62904;DHT22;49000;50.698;13.322;2023-05-10T05:42:56;9.90;1.00
62904;DHT22;49000;50.698;13.322;2023-05-10T05:45:21;10.10;1.00
62904;DHT22;49000;50.698;13.322;2023-05-10T05:47:47;10.10;1.00
62904;DHT22;49000;50.698;13.322;2023-05-10T05:50:12;10.30;1.00
62904;DHT22;49000;50.698;13.322;2023-05-10T05:52:38;10.40;1.00
62904;DHT22;49000;50.698;13.322;2023-05-10T05:55:04;10.60;1.00
62904;DHT22;49000;50.698;13.322;2023-05-10T05:57:29;10.80;1.00
62904;DHT22;49000;50.698;13.322;2023-05-10T05:59:55;10.90;1.00
62904;DHT22;49000;50.698;13.322;2023-05-10T06:02:20;10.90;1.00
62904;DHT22;49000;50.698;13.322;2023-05-10T06:04:46;11.00;1.00
62904;DHT22;49000;50.698;13.322;2023-05-10T06:07:11;11.10;1.00
62904;DHT22;49000;50.698;13.322;2023-05-10T06:09:37;11.20;1.00
62904;DHT22;49000;50.698;13.322;2023-05-10T06:12:02;11.20;1.00
62904;DHT22;49000;50.698;13.322;2023-05-10T06:14:28;11.30;1.00
62904;DHT22;49000;50.698;13.322;2023-05-10T06:16:53;11.50;1.00
62904;DHT22;49000;50.698;13.322;2023-05-10T06:19:19;11.60;1.00
62904;DHT22;49000;50.698;13.322;2023-05-10T06:21:44;11.70;1.00
62904;DHT22;49000;50.698;13.322;2023-05-10T06:24:10;12.00;1.00
62904;DHT22;49000;50.698;13.322;2023-05-10T06:26:35;12.30;1.00
62904;DHT22;49000;50.698;13.322;2023-05-10T06:29:01;12.40;1.00
62904;DHT22;49000;50.698;13.322;2023-05-10T06:31:26;12.60;1.00
62904;DHT22;49000;50.698;13.322;2023-05-10T06:33:52;13.00;1.00
62904;DHT22;49000;50.698;13.322;2023-05-10T06:36:17;13.30;1.00
62904;DHT22;49000;50.698;13.322;2023-05-10T06:38:43;13.50;1.00
62904;DHT22;49000;50.698;13.322;2023-05-10T06:41:08;13.60;1.00
62904;DHT22;49000;50.698;13.322;2023-05-10T06:43:34;13.60;1.00
62904;DHT22;49000;50.698;13.322;2023-05-10T06:46:00;13.50;1.00
62904;DHT22;49000;50.698;13.322;2023-05-10T06:48:25;13.60;1.00
62904;DHT22;49000;50.698;13.322;2023-05-10T06:50:50;13.70;1.00
62904;DHT22;49000;50.698;13.322;2023-05-10T06:53:16;13.60;1.00
62904;DHT22;49000;50.698;13.322;2023-05-10T06:55:42;13.60;1.00
62904;DHT22;49000;50.698;13.322;2023-05-10T06:58:07;13.60;1.00
62904;DHT22;49000;50.698;13.322;2023-05-10T07:00:32;13.60;1.00
62904;DHT22;49000;50.698;13.322;2023-05-10T07:02:58;14.00;1.00
62904;DHT22;49000;50.698;13.322;2023-05-10T07:05:23;14.10;1.00
62904;DHT22;49000;50.698;13.322;2023-05-10T07:07:49;14.30;1.00
62904;DHT22;49000;50.698;13.322;2023-05-10T07:10:15;14.40;1.00
62904;DHT22;49000;50.698;13.322;2023-05-10T07:12:40;14.30;1.00
62904;DHT22;49000;50.698;13.322;2023-05-10T07:15:06;14.40;1.00
62904;DHT22;49000;50.698;13.322;2023-05-10T07:17:32;14.80;1.00
62904;DHT22;49000;50.698;13.322;2023-05-10T07:19:58;15.10;1.00
62904;DHT22;49000;50.698;13.322;2023-05-10T07:22:24;15.00;1.00
62904;DHT22;49000;50.698;13.322;2023-05-10T07:24:50;14.80;1.00
62904;DHT22;49000;50.698;13.322;2023-05-10T07:27:15;14.80;1.00
62904;DHT22;49000;50.698;13.322;2023-05-10T07:29:40;14.60;1.00
62904;DHT22;49000;50.698;13.322;2023-05-10T07:32:06;14.80;1.00
62904;DHT22;49000;50.698;13.322;2023-05-10T07:34:31;15.00;1.00
62904;DHT22;49000;50.698;13.322;2023-05-10T07:37:00;15.20;1.00
62904;DHT22;49000;50.698;13.322;2023-05-10T07:39:27;15.20;1.00
62904;DHT22;49000;50.698;13.322;2023-05-10T07:41:53;15.20;1.00
62904;DHT22;49000;50.698;13.322;2023-05-10T07:44:18;15.00;1.00
62904;DHT22;49000;50.698;13.322;2023-05-10T07:46:45;15.10;1.00
62904;DHT22;49000;50.698;13.322;2023-05-10T07:49:11;15.00;1.00
62904;DHT22;49000;50.698;13.322;2023-05-10T07:51:36;15.20;1.00
62904;DHT22;49000;50.698;13.322;2023-05-10T07:54:02;15.10;1.00
62904;DHT22;49000;50.698;13.322;2023-05-10T07:56:29;14.90;1.00
62904;DHT22;49000;50.698;13.322;2023-05-10T07:58:55;14.90;1.00
62904;DHT22;49000;50.698;13.322;2023-05-10T08:01:22;15.00;1.00
62904;DHT22;49000;50.698;13.322;2023-05-10T08:03:48;15.00;1.00
62904;DHT22;49000;50.698;13.322;2023-05-10T08:06:14;15.40;1.00
62904;DHT22;49000;50.698;13.322;2023-05-10T08:08:41;15.50;1.00
62904;DHT22;49000;50.698;13.322;2023-05-10T08:11:06;15.60;1.00
62904;DHT22;49000;50.698;13.322;2023-05-10T08:13:32;15.40;1.00
62904;DHT22;49000;50.698;13.322;2023-05-10T08:15:58;15.50;1.00
62904;DHT22;49000;50.698;13.322;2023-05-10T08:18:23;15.50;1.00
62904;DHT22;49000;50.698;13.322;2023-05-10T08:20:48;15.50;1.00
62904;DHT22;49000;50.698;13.322;2023-05-10T08:23:14;15.40;1.00
62904;DHT22;49000;50.698;13.322;2023-05-10T08:25:40;15.60;1.00
62904;DHT22;49000;50.698;13.322;2023-05-10T08:28:05;15.90;1.00
62904;DHT22;49000;50.698;13.322;2023-05-10T08:30:31;16.20;1.00
62904;DHT22;49000;50.698;13.322;2023-05-10T08:32:56;16.50;1.00
62904;DHT22;49000;50.698;13.322;2023-05-10T08:35:22;16.80;1.00
62904;DHT22;49000;50.698;13.322;2023-05-10T08:37:47;17.10;1.00
62904;DHT22;49000;50.698;13.322;2023-05-10T08:40:13;17.10;1.00
62904;DHT22;49000;50.698;13.322;2023-05-10T08:42:42;17.50;1.00
62904;DHT22;49000;50.698;13.322;2023-05-10T08:45:09;17.80;1.00
62904;DHT22;49000;50.698;13.322;2023-05-10T08:47:36;17.70;1.00
62904;DHT22;49000;50.698;13.322;2023-05-10T08:50:03;17.40;1.00
62904;DHT22;49000;50.698;13.322;2023-05-10T08:52:30;17.10;1.00
62904;DHT22;49000;50.698;13.322;2023-05-10T08:54:56;16.80;1.00
62904;DHT22;49000;50.698;13.322;2023-05-10T08:57:21;16.60;1.00
62904;DHT22;49000;50.698;13.322;2023-05-10T08:59:47;16.70;1.00
62904;DHT22;49000;50.698;13.322;2023-05-10T09:02:13;16.60;1.00
62904;DHT22;49000;50.698;13.322;2023-05-10T09:04:39;16.60;1.00
62904;DHT22;49000;50.698;13.322;2023-05-10T09:07:06;16.70;1.00
62904;DHT22;49000;50.698;13.322;2023-05-10T09:09:31;16.50;1.00
62904;DHT22;49000;50.698;13.322;2023-05-10T09:11:57;16.60;1.00
62904;DHT22;49000;50.698;13.322;2023-05-10T09:14:24;16.80;1.00
62904;DHT22;49000;50.698;13.322;2023-05-10T09:16:50;16.80;1.00
62904;DHT22;49000;50.698;13.322;2023-05-10T09:19:16;16.80;1.00
62904;DHT22;49000;50.698;13.322;2023-05-10T09:21:41;16.70;1.00
62904;DHT22;49000;50.698;13.322;2023-05-10T09:24:08;16.70;1.00
62904;DHT22;49000;50.698;13.322;2023-05-10T09:26:35;16.80;1.00
62904;DHT22;49000;50.698;13.322;2023-05-10T09:29:01;16.70;1.00
62904;DHT22;49000;50.698;13.322;2023-05-10T09:31:47;16.60;1.00
62904;DHT22;49000;50.698;13.322;2023-05-10T09:34:19;16.30;1.00
62904;DHT22;49000;50.698;13.322;2023-05-10T09:36:56;16.20;1.00
62904;DHT22;49000;50.698;13.322;2023-05-10T09:39:30;16.70;1.00
62904;DHT22;49000;50.698;13.322;2023-05-10T09:41:57;17.80;1.00
62904;DHT22;49000;50.698;13.322;2023-05-10T09:44:22;18.40;1.00
62904;DHT22;49000;50.698;13.322;2023-05-10T09:46:51;18.30;1.00
62904;DHT22;49000;50.698;13.322;2023-05-10T09:49:18;18.00;1.00
62904;DHT22;49000;50.698;13.322;2023-05-10T09:51:44;17.50;1.00
62904;DHT22;49000;50.698;13.322;2023-05-10T09:54:11;17.70;1.00
62904;DHT22;49000;50.698;13.322;2023-05-10T09:56:37;18.00;1.00
62904;DHT22;49000;50.698;13.322;2023-05-10T09:59:07;18.40;1.00
62904;DHT22;49000;50.698;13.322;2023-05-10T10:01:33;18.20;1.00
62904;DHT22;49000;50.698;13.322;2023-05-10T10:04:05;18.50;1.00
62904;DHT22;49000;50.698;13.322;2023-05-10T10:06:38;19.00;1.00
62904;DHT22;49000;50.698;13.322;2023-05-10T10:09:05;19.00;1.00
62904;DHT22;49000;50.698;13.322;2023-05-10T10:11:31;19.00;1.00
62904;DHT22;49000;50.698;13.322;2023-05-10T10:13:58;19.00;1.00
62904;DHT22;49000;50.698;13.322;2023-05-10T10:16:24;19.20;1.00
62904;DHT22;49000;50.698;13.322;2023-05-10T10:18:50;19.40;1.00
62904;DHT22;49000;50.698;13.322;2023-05-10T10:21:15;19.40;1.00
62904;DHT22;49000;50.698;13.322;2023-05-10T10:23:41;19.60;1.00
62904;DHT22;49000;50.698;13.322;2023-05-10T10:26:09;20.00;1.00
62904;DHT22;49000;50.698;13.322;2023-05-10T10:28:57;20.70;1.00
62904;DHT22;49000;50.698;13.322;2023-05-10T10:31:55;21.20;1.00
62904;DHT22;49000;50.698;13.322;2023-05-10T10:34:28;21.50;1.00
62904;DHT22;49000;50.698;13.322;2023-05-10T10:36:55;21.30;1.00
62904;DHT22;49000;50.698;13.322;2023-05-10T10:39:21;21.20;1.00
62904;DHT22;49000;50.698;13.322;2023-05-10T10:41:57;21.20;1.00
62904;DHT22;49000;50.698;13.322;2023-05-10T10:49:49;20.20;1.00
62904;DHT22;49000;50.698;13.322;2023-05-10T10:52:36;20.20;1.00
62904;DHT22;49000;50.698;13.322;2023-05-10T10:55:10;20.20;1.00
62904;DHT22;49000;50.698;13.322;2023-05-10T10:57:55;20.40;1.00
62904;DHT22;49000;50.698;13.322;2023-05-10T11:00:30;20.70;1.00
62904;DHT22;49000;50.698;13.322;2023-05-10T11:02:57;20.60;1.00
62904;DHT22;49000;50.698;13.322;2023-05-10T11:07:53;21.00;1.00
62904;DHT22;49000;50.698;13.322;2023-05-10T11:10:20;21.40;1.00
62904;DHT22;49000;50.698;13.322;2023-05-10T11:15:31;20.80;1.00
62904;DHT22;49000;50.698;13.322;2023-05-10T11:17:57;20.40;1.00
62904;DHT22;49000;50.698;13.322;2023-05-10T11:20:23;20.00;1.00
62904;DHT22;49000;50.698;13.322;2023-05-10T11:22:58;19.80;1.00
62904;DHT22;49000;50.698;13.322;2023-05-10T11:25:44;19.60;1.00
62904;DHT22;49000;50.698;13.322;2023-05-10T11:28:10;19.60;1.00
62904;DHT22;49000;50.698;13.322;2023-05-10T11:30:41;19.50;1.00
62904;DHT22;49000;50.698;13.322;2023-05-10T11:33:07;19.40;1.00
62904;DHT22;49000;50.698;13.322;2023-05-10T11:35:40;19.40;1.00
62904;DHT22;49000;50.698;13.322;2023-05-10T11:38:10;19.00;1.00
62904;DHT22;49000;50.698;13.322;2023-05-10T11:40:37;18.80;1.00
62904;DHT22;49000;50.698;13.322;2023-05-10T11:43:03;18.90;1.00
62904;DHT22;49000;50.698;13.322;2023-05-10T11:45:31;19.00;1.00
62904;DHT22;49000;50.698;13.322;2023-05-10T11:47:58;18.90;1.00
62904;DHT22;49000;50.698;13.322;2023-05-10T11:50:23;19.00;1.00
62904;DHT22;49000;50.698;13.322;2023-05-10T11:52:56;19.30;1.00
62904;DHT22;49000;50.698;13.322;2023-05-10T11:55:22;19.50;1.00
62904;DHT22;49000;50.698;13.322;2023-05-10T11:57:51;19.60;1.00
62904;DHT22;49000;50.698;13.322;2023-05-10T12:00:16;19.30;1.00
62904;DHT22;49000;50.698;13.322;2023-05-10T12:02:42;19.10;1.00
62904;DHT22;49000;50.698;13.322;2023-05-10T12:05:08;19.10;1.00
62904;DHT22;49000;50.698;13.322;2023-05-10T12:07:33;19.10;1.00
62904;DHT22;49000;50.698;13.322;2023-05-10T12:10:11;18.90;1.00
62904;DHT22;49000;50.698;13.322;2023-05-10T12:12:41;19.10;1.00
62904;DHT22;49000;50.698;13.322;2023-05-10T12:15:21;19.20;1.00
62904;DHT22;49000;50.698;13.322;2023-05-10T12:17:47;19.10;1.00
62904;DHT22;49000;50.698;13.322;2023-05-10T12:20:14;19.00;1.00
62904;DHT22;49000;50.698;13.322;2023-05-10T12:22:43;19.00;1.00
62904;DHT22;49000;50.698;13.322;2023-05-10T12:25:09;18.70;1.00
62904;DHT22;49000;50.698;13.322;2023-05-10T12:27:35;18.40;1.00
62904;DHT22;49000;50.698;13.322;2023-05-10T12:30:02;18.40;1.00
62904;DHT22;49000;50.698;13.322;2023-05-10T12:32:44;18.50;1.00
62904;DHT22;49000;50.698;13.322;2023-05-10T12:35:09;18.30;1.00
62904;DHT22;49000;50.698;13.322;2023-05-10T12:37:35;18.40;1.00
62904;DHT22;49000;50.698;13.322;2023-05-10T12:40:06;18.30;1.00
62904;DHT22;49000;50.698;13.322;2023-05-10T12:42:31;18.00;1.00
62904;DHT22;49000;50.698;13.322;2023-05-10T12:44:57;17.80;1.00
62904;DHT22;49000;50.698;13.322;2023-05-10T12:47:22;17.90;1.00
62904;DHT22;49000;50.698;13.322;2023-05-10T12:49:48;18.10;1.00
62904;DHT22;49000;50.698;13.322;2023-05-10T12:52:13;18.30;1.00
62904;DHT22;49000;50.698;13.322;2023-05-10T12:54:39;18.40;1.00
62904;DHT22;49000;50.698;13.322;2023-05-10T12:57:04;18.20;1.00
62904;DHT22;49000;50.698;13.322;2023-05-10T12:59:30;17.70;1.00
62904;DHT22;49000;50.698;13.322;2023-05-10T13:01:57;17.80;1.00
62904;DHT22;49000;50.698;13.322;2023-05-10T13:04:22;18.00;1.00
62904;DHT22;49000;50.698;13.322;2023-05-10T13:06:48;18.00;1.00
62904;DHT22;49000;50.698;13.322;2023-05-10T13:09:13;18.10;1.00
62904;DHT22;49000;50.698;13.322;2023-05-10T13:11:39;18.20;1.00
62904;DHT22;49000;50.698;13.322;2023-05-10T13:14:04;18.20;1.00
62904;DHT22;49000;50.698;13.322;2023-05-10T13:16:30;18.10;1.00
62904;DHT22;49000;50.698;13.322;2023-05-10T13:18:56;18.10;1.00
62904;DHT22;49000;50.698;13.322;2023-05-10T13:21:21;18.10;1.00
62904;DHT22;49000;50.698;13.322;2023-05-10T13:23:46;18.30;1.00
62904;DHT22;49000;50.698;13.322;2023-05-10T13:26:12;18.30;1.00
62904;DHT22;49000;50.698;13.322;2023-05-10T13:28:37;18.30;1.00
62904;DHT22;49000;50.698;13.322;2023-05-10T13:31:04;18.30;1.00
62904;DHT22;49000;50.698;13.322;2023-05-10T13:33:30;18.20;1.00
62904;DHT22;49000;50.698;13.322;2023-05-10T13:35:55;17.70;1.00
62904;DHT22;49000;50.698;13.322;2023-05-10T13:38:21;17.40;1.00
62904;DHT22;49000;50.698;13.322;2023-05-10T13:40:46;17.50;1.00
62904;DHT22;49000;50.698;13.322;2023-05-10T13:43:11;17.60;1.00
62904;DHT22;49000;50.698;13.322;2023-05-10T13:45:37;17.70;1.00
62904;DHT22;49000;50.698;13.322;2023-05-10T13:48:03;17.70;1.00
62904;DHT22;49000;50.698;13.322;2023-05-10T13:50:30;17.70;1.00
62904;DHT22;49000;50.698;13.322;2023-05-10T13:52:55;17.80;1.00
62904;DHT22;49000;50.698;13.322;2023-05-10T13:55:21;17.90;1.00
62904;DHT22;49000;50.698;13.322;2023-05-10T13:57:46;18.00;1.00
62904;DHT22;49000;50.698;13.322;2023-05-10T14:00:12;17.80;1.00
62904;DHT22;49000;50.698;13.322;2023-05-10T14:02:38;17.70;1.00
62904;DHT22;49000;50.698;13.322;2023-05-10T14:05:03;17.70;1.00
62904;DHT22;49000;50.698;13.322;2023-05-10T14:07:30;17.50;1.00
62904;DHT22;49000;50.698;13.322;2023-05-10T14:09:56;17.60;1.00
62904;DHT22;49000;50.698;13.322;2023-05-10T14:12:21;17.40;1.00
62904;DHT22;49000;50.698;13.322;2023-05-10T14:14:46;17.20;1.00
62904;DHT22;49000;50.698;13.322;2023-05-10T14:17:12;17.10;1.00
62904;DHT22;49000;50.698;13.322;2023-05-10T14:19:37;17.10;1.00
62904;DHT22;49000;50.698;13.322;2023-05-10T14:22:03;16.90;1.00
62904;DHT22;49000;50.698;13.322;2023-05-10T14:24:29;16.80;1.00
62904;DHT22;49000;50.698;13.322;2023-05-10T14:26:54;16.90;1.00
62904;DHT22;49000;50.698;13.322;2023-05-10T14:29:21;16.90;1.00
62904;DHT22;49000;50.698;13.322;2023-05-10T14:31:46;16.70;1.00
62904;DHT22;49000;50.698;13.322;2023-05-10T14:34:11;16.70;1.00
62904;DHT22;49000;50.698;13.322;2023-05-10T14:36:37;16.70;1.00
62904;DHT22;49000;50.698;13.322;2023-05-10T14:39:02;16.70;1.00
62904;DHT22;49000;50.698;13.322;2023-05-10T14:41:28;16.90;1.00
62904;DHT22;49000;50.698;13.322;2023-05-10T14:43:55;17.00;1.00
62904;DHT22;49000;50.698;13.322;2023-05-10T14:46:20;16.90;1.00
62904;DHT22;49000;50.698;13.322;2023-05-10T14:48:46;16.80;1.00
62904;DHT22;49000;50.698;13.322;2023-05-10T14:51:11;16.90;1.00
62904;DHT22;49000;50.698;13.322;2023-05-10T14:53:37;16.60;1.00
62904;DHT22;49000;50.698;13.322;2023-05-10T14:56:02;16.60;1.00
62904;DHT22;49000;50.698;13.322;2023-05-10T14:58:28;16.70;1.00
62904;DHT22;49000;50.698;13.322;2023-05-10T15:00:54;16.70;1.00
62904;DHT22;49000;50.698;13.322;2023-05-10T15:03:19;16.80;1.00
62904;DHT22;49000;50.698;13.322;2023-05-10T15:05:45;16.80;1.00
62904;DHT22;49000;50.698;13.322;2023-05-10T15:08:10;16.70;1.00
62904;DHT22;49000;50.698;13.322;2023-05-10T15:10:38;16.70;1.00
62904;DHT22;49000;50.698;13.322;2023-05-10T15:13:04;16.70;1.00
62904;DHT22;49000;50.698;13.322;2023-05-10T15:15:29;16.80;1.00
62904;DHT22;49000;50.698;13.322;2023-05-10T15:17:55;16.70;1.00
62904;DHT22;49000;50.698;13.322;2023-05-10T15:20:20;16.60;1.00
62904;DHT22;49000;50.698;13.322;2023-05-10T15:22:46;16.50;1.00
62904;DHT22;49000;50.698;13.322;2023-05-10T15:25:12;16.50;1.00
62904;DHT22;49000;50.698;13.322;2023-05-10T15:27:38;16.60;1.00
62904;DHT22;49000;50.698;13.322;2023-05-10T15:30:04;16.70;1.00
62904;DHT22;49000;50.698;13.322;2023-05-10T15:32:29;16.80;1.00
62904;DHT22;49000;50.698;13.322;2023-05-10T15:34:55;16.90;1.00
62904;DHT22;49000;50.698;13.322;2023-05-10T15:37:21;16.90;1.00
62904;DHT22;49000;50.698;13.322;2023-05-10T15:39:48;16.80;1.00
62904;DHT22;49000;50.698;13.322;2023-05-10T15:42:13;17.00;1.00
62904;DHT22;49000;50.698;13.322;2023-05-10T15:44:39;17.00;1.00
62904;DHT22;49000;50.698;13.322;2023-05-10T15:47:05;17.10;1.00
62904;DHT22;49000;50.698;13.322;2023-05-10T15:49:31;17.10;1.00
62904;DHT22;49000;50.698;13.322;2023-05-10T15:51:56;17.10;1.00